createdAt,value
2019-05-06T00:00:53.447Z,79.79
2019-05-06T00:01:41.096Z,79.43
2019-05-06T00:02:43.467Z,79.12
2019-05-06T00:03:40.995Z,79.95
2019-05-06T00:04:41.097Z,79.53
2019-05-06T00:05:41.124Z,79.60
2019-05-06T00:06:41.155Z,79.29
2019-05-06T00:07:41.112Z,79.63
2019-05-06T00:08:48.867Z,79.92
2019-05-06T00:09:44.179Z,79.67
2019-05-06T00:10:41.237Z,80.40
2019-05-06T00:11:41.158Z,80.49
2019-05-06T00:12:41.194Z,80.39
2019-05-06T00:13:41.258Z,79.65
2019-05-06T00:14:43.173Z,79.93
2019-05-06T00:15:41.066Z,80.36
2019-05-06T00:16:41.285Z,80.09
2019-05-06T00:17:41.185Z,80.41
2019-05-06T00:18:41.096Z,80.33
2019-05-06T00:19:41.334Z,80.60
2019-05-06T00:20:41.170Z,81.04
2019-05-06T00:21:41.209Z,81.23
2019-05-06T00:22:43.494Z,80.97
2019-05-06T00:23:41.254Z,80.75
2019-05-06T00:24:41.295Z,80.02
2019-05-06T00:25:41.265Z,79.77
2019-05-06T00:26:41.156Z,79.72
2019-05-06T00:27:41.297Z,80.03
2019-05-06T00:28:41.180Z,80.34
2019-05-06T00:29:41.254Z,80.28
2019-05-06T00:30:41.301Z,80.60
2019-05-06T00:31:41.184Z,80.87
2019-05-06T00:32:41.256Z,80.62
2019-05-06T00:33:41.251Z,81.44
2019-05-06T00:34:43.592Z,81.46
2019-05-06T00:35:41.253Z,81.57
2019-05-06T00:36:41.202Z,81.69
2019-05-06T00:37:41.135Z,81.54
2019-05-06T00:38:41.208Z,81.59
2019-05-06T00:39:41.258Z,80.23
2019-05-06T00:40:43.596Z,80.60
2019-05-06T00:41:43.378Z,80.02
2019-05-06T00:42:41.127Z,80.04
2019-05-06T00:43:41.180Z,80.49
2019-05-06T00:44:41.469Z,80.13
2019-05-06T00:45:41.207Z,80.58
2019-05-06T00:46:41.128Z,80.39
2019-05-06T00:47:41.230Z,80.89
2019-05-06T00:48:41.146Z,81.04
2019-05-06T00:49:41.185Z,81.33
2019-05-06T00:50:41.116Z,80.52
2019-05-06T00:51:41.158Z,80.54
2019-05-06T00:52:41.315Z,81.27
2019-05-06T00:53:41.088Z,81.41
2019-05-06T00:54:43.519Z,80.58
2019-05-06T00:55:41.181Z,81.14
2019-05-06T00:56:41.175Z,80.79
2019-05-06T00:57:43.291Z,81.05
2019-05-06T00:58:41.304Z,81.01
2019-05-06T00:59:41.242Z,81.42
2019-05-06T01:00:41.346Z,80.65
2019-05-06T01:01:43.385Z,80.27
2019-05-06T01:02:41.243Z,80.91
2019-05-06T01:03:41.325Z,80.35
2019-05-06T01:04:41.203Z,79.66
2019-05-06T01:05:41.245Z,80.15
2019-05-06T01:06:41.141Z,80.48
2019-05-06T01:07:41.162Z,80.59
2019-05-06T01:08:41.283Z,80.45
2019-05-06T01:09:41.200Z,80.87
2019-05-06T01:10:41.183Z,80.42
2019-05-06T01:11:41.338Z,80.90
2019-05-06T01:12:41.174Z,80.78
2019-05-06T01:13:41.179Z,80.47
2019-05-06T01:14:43.494Z,81.03
2019-05-06T01:15:41.332Z,80.48
2019-05-06T01:16:41.262Z,81.18
2019-05-06T01:17:41.295Z,80.72
2019-05-06T01:18:43.437Z,80.88
2019-05-06T01:19:41.199Z,81.50
2019-05-06T01:20:41.205Z,80.71
2019-05-06T01:21:41.298Z,80.02
2019-05-06T01:22:41.179Z,79.64
2019-05-06T01:23:41.328Z,79.71
2019-05-06T01:24:41.124Z,80.64
2019-05-06T01:25:41.401Z,80.64
2019-05-06T01:26:41.121Z,80.25
2019-05-06T01:27:41.269Z,80.76
2019-05-06T01:28:43.470Z,80.90
2019-05-06T01:29:41.515Z,80.11
2019-05-06T01:30:41.152Z,79.72
2019-05-06T01:31:43.222Z,80.55
2019-05-06T01:32:43.437Z,79.73
2019-05-06T01:33:41.159Z,80.21
2019-05-06T01:34:41.210Z,80.42
2019-05-06T01:35:41.274Z,80.19
2019-05-06T01:36:41.266Z,80.05
2019-05-06T01:37:41.245Z,79.98
2019-05-06T01:38:41.184Z,79.39
2019-05-06T01:39:41.222Z,79.66
2019-05-06T01:40:41.241Z,78.72
2019-05-06T01:41:41.364Z,78.61
2019-05-06T01:42:41.230Z,79.46
2019-05-06T01:43:41.299Z,79.85
2019-05-06T01:44:41.261Z,80.01
2019-05-06T01:45:41.298Z,80.32
2019-05-06T01:46:41.262Z,80.88
2019-05-06T01:47:41.355Z,80.69
2019-05-06T01:48:41.284Z,81.01
2019-05-06T01:49:41.294Z,81.06
2019-05-06T01:50:41.225Z,81.41
2019-05-06T01:51:41.371Z,80.91
2019-05-06T01:52:41.202Z,81.28
2019-05-06T01:53:41.211Z,81.80
2019-05-06T01:54:41.131Z,80.91
2019-05-06T01:55:41.338Z,81.26
2019-05-06T01:56:41.226Z,81.44
2019-05-06T01:57:41.255Z,81.23
2019-05-06T01:58:41.417Z,81.34
2019-05-06T01:59:41.452Z,81.71
2019-05-06T02:00:41.208Z,81.35
2019-05-06T02:01:56.430Z,81.82
2019-05-06T02:02:43.704Z,81.87
2019-05-06T02:03:41.190Z,81.27
2019-05-06T02:04:41.241Z,81.47
2019-05-06T02:05:41.212Z,81.92
2019-05-06T02:06:41.236Z,81.53
2019-05-06T02:07:41.258Z,81.69
2019-05-06T02:08:41.112Z,81.32
2019-05-06T02:09:41.376Z,81.37
2019-05-06T02:10:43.440Z,81.80
2019-05-06T02:11:41.245Z,81.41
2019-05-06T02:12:41.246Z,81.49
2019-05-06T02:13:41.401Z,81.85
2019-05-06T02:14:43.494Z,81.56
2019-05-06T02:15:41.267Z,81.39
2019-05-06T02:16:43.513Z,81.35
2019-05-06T02:17:41.402Z,81.23
2019-05-06T02:18:41.161Z,81.40
2019-05-06T02:19:41.255Z,81.71
2019-05-06T02:20:41.432Z,81.00
2019-05-06T02:21:43.708Z,81.18
2019-05-06T02:22:41.259Z,80.83
2019-05-06T02:23:41.195Z,80.70
2019-05-06T02:24:41.151Z,81.19
2019-05-06T02:25:41.353Z,81.71
2019-05-06T02:26:41.195Z,81.30
2019-05-06T02:27:41.369Z,81.45
2019-05-06T02:28:41.253Z,81.90
2019-05-06T02:29:43.333Z,81.29
2019-05-06T02:30:41.258Z,81.56
2019-05-06T02:31:41.415Z,82.10
2019-05-06T02:32:41.284Z,81.66
2019-05-06T02:33:44.607Z,81.26
2019-05-06T02:34:41.406Z,81.28
2019-05-06T02:35:41.537Z,81.11
2019-05-06T02:36:41.174Z,80.03
2019-05-06T02:37:41.215Z,80.40
2019-05-06T02:38:50.454Z,79.96
2019-05-06T02:39:43.829Z,80.76
2019-05-06T02:40:42.690Z,80.80
2019-05-06T02:41:43.030Z,80.88
2019-05-06T02:42:43.176Z,81.23
2019-05-06T02:43:43.505Z,81.11
2019-05-06T02:44:44.189Z,81.93
2019-05-06T02:45:43.340Z,81.37
2019-05-06T02:46:44.162Z,81.05
2019-05-06T02:47:42.979Z,80.55
2019-05-06T02:48:43.271Z,80.97
2019-05-06T02:49:44.330Z,80.99
2019-05-06T02:50:42.706Z,80.90
2019-05-06T02:51:44.080Z,80.66
2019-05-06T02:52:43.749Z,80.57
2019-05-06T02:53:42.874Z,80.58
2019-05-06T02:54:42.687Z,80.93
2019-05-06T02:55:43.046Z,80.99
2019-05-06T02:56:43.559Z,81.16
2019-05-06T02:57:43.958Z,80.90
2019-05-06T02:58:43.735Z,80.39
2019-05-06T02:59:44.250Z,80.41
2019-05-06T03:00:42.948Z,80.48
2019-05-06T03:01:43.236Z,80.44
2019-05-06T03:02:44.877Z,80.13
2019-05-06T03:03:43.640Z,80.15
2019-05-06T03:04:43.758Z,80.82
2019-05-06T03:05:43.879Z,80.94
2019-05-06T03:06:44.426Z,80.56
2019-05-06T03:07:43.515Z,80.65
2019-05-06T03:08:43.405Z,80.86
2019-05-06T03:09:44.315Z,81.10
2019-05-06T03:10:44.346Z,81.67
2019-05-06T03:11:43.749Z,81.76
2019-05-06T03:12:43.097Z,81.56
2019-05-06T03:13:43.687Z,80.99
2019-05-06T03:14:43.707Z,80.86
2019-05-06T03:15:43.305Z,81.69
2019-05-06T03:16:43.918Z,81.54
2019-05-06T03:17:43.528Z,81.49
2019-05-06T03:18:43.343Z,81.81
2019-05-06T03:19:45.737Z,81.55
2019-05-06T03:20:43.916Z,82.15
2019-05-06T03:21:44.518Z,81.64
2019-05-06T03:22:43.548Z,81.58
2019-05-06T03:23:43.730Z,82.35
2019-05-06T03:24:43.613Z,82.47
2019-05-06T03:25:43.977Z,82.31
2019-05-06T03:26:43.877Z,81.59
2019-05-06T03:27:46.482Z,81.52
2019-05-06T03:28:43.614Z,81.23
2019-05-06T03:29:44.188Z,81.20
2019-05-06T03:30:45.795Z,81.81
2019-05-06T03:31:46.076Z,82.16
2019-05-06T03:33:00.184Z,81.93
2019-05-06T03:34:03.393Z,82.29
2019-05-06T03:35:01.084Z,81.98
2019-05-06T03:35:55.961Z,82.88
2019-05-06T03:36:47.689Z,83.00
2019-05-06T03:37:43.762Z,82.80
2019-05-06T03:38:43.239Z,82.92
2019-05-06T03:39:43.384Z,82.94
2019-05-06T03:40:45.068Z,82.98
2019-05-06T03:41:43.794Z,82.35
2019-05-06T03:42:42.687Z,82.78
2019-05-06T03:43:43.439Z,82.91
2019-05-06T03:44:43.583Z,82.49
2019-05-06T03:45:42.863Z,81.94
2019-05-06T03:46:43.008Z,81.95
2019-05-06T03:47:43.498Z,82.03
2019-05-06T03:48:44.061Z,81.60
2019-05-06T03:49:42.657Z,82.02
2019-05-06T03:50:43.948Z,81.82
2019-05-06T03:51:42.930Z,81.95
2019-05-06T03:52:43.007Z,81.73
2019-05-06T03:53:43.307Z,82.26
2019-05-06T03:54:45.004Z,82.23
2019-05-06T03:55:46.503Z,82.26
2019-05-06T03:56:43.303Z,82.04
2019-05-06T03:57:42.860Z,81.99
2019-05-06T03:58:43.477Z,82.92
2019-05-06T03:59:43.561Z,82.36
2019-05-06T04:00:43.723Z,82.71
2019-05-06T04:01:42.945Z,82.96
2019-05-06T04:02:43.434Z,82.90
2019-05-06T04:03:47.754Z,82.99
2019-05-06T04:04:43.998Z,82.49
2019-05-06T04:05:43.753Z,82.55
2019-05-06T04:06:43.630Z,81.89
2019-05-06T04:07:45.535Z,82.15
2019-05-06T04:08:43.646Z,82.41
2019-05-06T04:09:44.112Z,82.20
2019-05-06T04:10:43.520Z,82.52
2019-05-06T04:11:43.204Z,81.95
2019-05-06T04:12:43.485Z,81.97
2019-05-06T04:13:43.752Z,82.42
2019-05-06T04:14:43.321Z,82.04
2019-05-06T04:15:43.084Z,82.39
2019-05-06T04:16:44.036Z,82.16
2019-05-06T04:17:43.851Z,81.92
2019-05-06T04:18:43.766Z,81.62
2019-05-06T04:19:43.712Z,81.86
2019-05-06T04:20:43.583Z,82.23
2019-05-06T04:21:43.712Z,82.18
2019-05-06T04:22:43.781Z,81.58
2019-05-06T04:23:43.690Z,81.76
2019-05-06T04:24:43.045Z,81.90
2019-05-06T04:25:43.530Z,81.71
2019-05-06T04:26:46.052Z,80.69
2019-05-06T04:27:43.012Z,80.75
2019-05-06T04:28:43.531Z,80.73
2019-05-06T04:29:42.787Z,81.04
2019-05-06T04:30:42.856Z,80.96
2019-05-06T04:31:43.507Z,81.51
2019-05-06T04:32:43.489Z,81.64
2019-05-06T04:33:41.445Z,81.72
2019-05-06T04:34:43.074Z,80.79
2019-05-06T04:35:43.033Z,81.47
2019-05-06T04:36:44.088Z,82.17
2019-05-06T04:37:42.965Z,81.66
2019-05-06T04:38:43.393Z,81.57
2019-05-06T04:39:43.410Z,81.15
2019-05-06T04:40:43.980Z,81.23
2019-05-06T04:41:43.407Z,81.74
2019-05-06T04:42:44.434Z,81.77
2019-05-06T04:43:43.873Z,81.48
2019-05-06T04:44:43.858Z,81.40
2019-05-06T04:45:43.287Z,81.32
2019-05-06T04:46:44.402Z,80.99
2019-05-06T04:47:43.387Z,80.73
2019-05-06T04:48:43.407Z,80.69
2019-05-06T04:49:43.683Z,80.82
2019-05-06T04:50:44.417Z,80.77
2019-05-06T04:51:43.078Z,80.69
2019-05-06T04:52:43.181Z,80.66
2019-05-06T04:53:44.030Z,80.30
2019-05-06T04:54:43.942Z,79.90
2019-05-06T04:55:43.671Z,80.23
2019-05-06T04:56:43.853Z,80.14
2019-05-06T04:57:44.052Z,80.14
2019-05-06T04:58:42.901Z,80.10
2019-05-06T04:59:43.237Z,80.57
2019-05-06T05:00:44.134Z,80.24
2019-05-06T05:01:41.452Z,80.12
2019-05-06T05:02:45.936Z,79.92
2019-05-06T05:03:42.766Z,80.35
2019-05-06T05:04:43.233Z,80.45
2019-05-06T05:05:44.436Z,80.65
2019-05-06T05:06:43.235Z,80.21
2019-05-06T05:07:42.528Z,79.82
2019-05-06T05:08:42.750Z,80.36
2019-05-06T05:09:42.991Z,80.74
2019-05-06T05:10:43.159Z,81.19
2019-05-06T05:11:42.529Z,81.34
2019-05-06T05:12:42.664Z,81.07
2019-05-06T05:13:43.314Z,80.82
2019-05-06T05:14:42.295Z,80.17
2019-05-06T05:15:41.821Z,79.78
2019-05-06T05:16:42.141Z,80.85
2019-05-06T05:17:42.109Z,80.11
2019-05-06T05:18:42.481Z,80.39
2019-05-06T05:19:42.833Z,79.64
2019-05-06T05:20:45.667Z,79.86
2019-05-06T05:21:42.859Z,79.81
2019-05-06T05:22:42.383Z,80.39
2019-05-06T05:23:42.830Z,79.65
2019-05-06T05:24:47.026Z,79.41
2019-05-06T05:25:42.557Z,79.73
2019-05-06T05:26:45.077Z,78.73
2019-05-06T05:27:42.089Z,78.74
2019-05-06T05:28:42.982Z,79.47
2019-05-06T05:29:42.412Z,79.52
2019-05-06T05:30:42.967Z,79.38
2019-05-06T05:31:43.534Z,79.85
2019-05-06T05:32:42.826Z,79.66
2019-05-06T05:33:42.314Z,80.11
2019-05-06T05:34:43.454Z,79.63
2019-05-06T05:35:43.257Z,80.02
2019-05-06T05:36:42.607Z,80.39
2019-05-06T05:37:41.929Z,80.87
2019-05-06T05:38:42.844Z,80.13
2019-05-06T05:39:42.597Z,80.78
2019-05-06T05:40:43.109Z,79.52
2019-05-06T05:41:42.864Z,80.26
2019-05-06T05:42:42.375Z,79.49
2019-05-06T05:43:42.367Z,79.26
2019-05-06T05:44:43.051Z,79.92
2019-05-06T05:45:42.465Z,80.23
2019-05-06T05:46:43.691Z,79.66
2019-05-06T05:47:42.516Z,79.28
2019-05-06T05:48:42.375Z,79.28
2019-05-06T05:49:42.056Z,79.26
2019-05-06T05:50:42.056Z,79.31
2019-05-06T05:51:42.603Z,79.39
2019-05-06T05:52:42.554Z,78.82
2019-05-06T05:53:42.606Z,78.42
2019-05-06T05:54:42.343Z,78.31
2019-05-06T05:55:42.372Z,77.80
2019-05-06T05:56:43.812Z,78.77
2019-05-06T05:57:43.249Z,78.66
2019-05-06T05:58:42.451Z,78.83
2019-05-06T05:59:42.173Z,79.60
2019-05-06T06:00:42.571Z,79.59
2019-05-06T06:01:43.449Z,78.63
2019-05-06T06:02:43.702Z,78.65
2019-05-06T06:03:42.214Z,78.98
2019-05-06T06:04:53.883Z,78.89
2019-05-06T06:05:42.766Z,79.27
2019-05-06T06:06:42.344Z,79.12
2019-05-06T06:07:42.251Z,79.34
2019-05-06T06:08:43.097Z,78.83
2019-05-06T06:09:41.845Z,78.44
2019-05-06T06:10:42.618Z,78.39
2019-05-06T06:11:42.142Z,78.33
2019-05-06T06:12:42.927Z,78.74
2019-05-06T06:13:43.337Z,78.25
2019-05-06T06:14:43.758Z,78.01
2019-05-06T06:15:42.333Z,77.24
2019-05-06T06:16:42.282Z,76.26
2019-05-06T06:17:42.604Z,74.71
2019-05-06T06:18:43.088Z,75.32
2019-05-06T06:19:42.471Z,74.95
2019-05-06T06:20:42.410Z,74.27
2019-05-06T06:21:42.788Z,74.69
2019-05-06T06:22:42.506Z,74.74
2019-05-06T06:23:41.997Z,73.47
2019-05-06T06:24:42.867Z,73.08
2019-05-06T06:25:42.357Z,73.68
2019-05-06T06:26:42.938Z,73.15
2019-05-06T06:27:42.039Z,73.17
2019-05-06T06:28:42.530Z,74.61
2019-05-06T06:29:41.829Z,71.90
2019-05-06T06:30:42.375Z,73.20
2019-05-06T06:31:42.771Z,74.21
2019-05-06T06:32:41.948Z,73.14
2019-05-06T06:33:42.846Z,72.41
2019-05-06T06:34:42.713Z,73.01
2019-05-06T06:35:42.643Z,72.38
2019-05-06T06:36:41.922Z,72.88
2019-05-06T06:37:42.654Z,72.08
2019-05-06T06:38:42.906Z,73.19
2019-05-06T06:39:42.330Z,71.68
2019-05-06T06:40:42.545Z,72.39
2019-05-06T06:41:42.366Z,72.28
2019-05-06T06:42:42.754Z,71.98
2019-05-06T06:43:42.101Z,73.34
2019-05-06T06:44:42.401Z,72.57
2019-05-06T06:45:42.198Z,71.35
2019-05-06T06:46:42.930Z,71.81
2019-05-06T06:47:42.523Z,71.66
2019-05-06T06:48:43.003Z,70.82
2019-05-06T06:49:42.405Z,72.19
2019-05-06T06:50:42.627Z,70.80
2019-05-06T06:51:42.511Z,71.18
2019-05-06T06:52:42.170Z,70.53
2019-05-06T06:53:42.125Z,70.49
2019-05-06T06:54:43.793Z,69.60
2019-05-06T06:55:42.703Z,69.60
2019-05-06T06:56:43.858Z,70.56
2019-05-06T06:57:42.389Z,69.77
2019-05-06T06:58:41.786Z,68.93
2019-05-06T06:59:42.659Z,69.15
2019-05-06T07:00:42.481Z,69.47
2019-05-06T07:01:42.320Z,69.37
2019-05-06T07:02:43.247Z,68.58
2019-05-06T07:03:43.158Z,67.88
2019-05-06T07:04:43.087Z,68.35
2019-05-06T07:05:42.319Z,67.68
2019-05-06T07:06:42.298Z,67.98
2019-05-06T07:07:46.622Z,67.54
2019-05-06T07:08:42.630Z,67.06
2019-05-06T07:09:41.982Z,66.27
2019-05-06T07:10:43.030Z,65.69
2019-05-06T07:11:42.823Z,65.87
2019-05-06T07:12:42.695Z,66.18
2019-05-06T07:13:42.005Z,66.05
2019-05-06T07:14:42.795Z,65.43
2019-05-06T07:15:42.634Z,64.87
2019-05-06T07:16:43.060Z,64.95
2019-05-06T07:17:41.925Z,64.59
2019-05-06T07:18:42.734Z,64.59
2019-05-06T07:19:42.257Z,64.73
2019-05-06T07:20:42.937Z,64.45
2019-05-06T07:21:43.514Z,65.29
2019-05-06T07:22:42.413Z,63.13
2019-05-06T07:23:42.066Z,63.11
2019-05-06T07:24:43.089Z,60.95
2019-05-06T07:25:42.915Z,60.44
2019-05-06T07:26:42.534Z,61.06
2019-05-06T07:27:42.010Z,61.55
2019-05-06T07:28:43.720Z,61.66
2019-05-06T07:29:48.331Z,61.79
2019-05-06T07:30:42.030Z,61.28
2019-05-06T07:31:42.652Z,62.60
2019-05-06T07:32:42.349Z,62.86
2019-05-06T07:33:42.854Z,60.89
2019-05-06T07:34:42.070Z,59.79
2019-05-06T07:35:43.890Z,59.44
2019-05-06T07:36:43.105Z,60.14
2019-05-06T07:37:42.264Z,59.76
2019-05-06T07:38:42.736Z,59.57
2019-05-06T07:39:43.064Z,59.19
2019-05-06T07:40:42.008Z,59.59
2019-05-06T07:41:45.754Z,59.03
2019-05-06T07:42:43.074Z,58.36
2019-05-06T07:43:42.141Z,57.68
2019-05-06T07:44:42.332Z,56.84
2019-05-06T07:45:42.358Z,56.90
2019-05-06T07:46:42.715Z,56.21
2019-05-06T07:47:42.634Z,57.03
2019-05-06T07:48:42.863Z,57.41
2019-05-06T07:49:43.238Z,56.21
2019-05-06T07:50:42.531Z,56.78
2019-05-06T07:51:41.987Z,57.61
2019-05-06T07:52:42.157Z,57.90
2019-05-06T07:53:42.701Z,57.12
2019-05-06T07:54:42.403Z,57.35
2019-05-06T07:55:42.442Z,57.41
2019-05-06T07:56:42.852Z,56.88
2019-05-06T07:57:42.388Z,57.54
2019-05-06T07:58:43.351Z,57.80
2019-05-06T07:59:42.958Z,56.70
2019-05-06T08:00:42.263Z,55.79
2019-05-06T08:01:43.818Z,54.23
2019-05-06T08:02:42.598Z,54.44
2019-05-06T08:03:42.753Z,52.86
2019-05-06T08:04:42.053Z,52.68
2019-05-06T08:05:55.182Z,53.34
2019-05-06T08:06:42.729Z,55.68
2019-05-06T08:07:42.279Z,55.60
2019-05-06T08:08:43.381Z,54.99
2019-05-06T08:09:42.241Z,53.94
2019-05-06T08:10:42.331Z,54.28
2019-05-06T08:11:42.299Z,54.89
2019-05-06T08:12:42.860Z,55.01
2019-05-06T08:13:43.505Z,55.03
2019-05-06T08:14:43.077Z,54.16
2019-05-06T08:15:42.085Z,53.42
2019-05-06T08:16:42.477Z,53.19
2019-05-06T08:17:42.406Z,52.93
2019-05-06T08:18:42.595Z,52.23
2019-05-06T08:19:42.282Z,51.40
2019-05-06T08:20:42.749Z,52.23
2019-05-06T08:21:42.797Z,50.35
2019-05-06T08:22:42.241Z,49.24
2019-05-06T08:23:42.846Z,48.77
2019-05-06T08:24:42.261Z,50.02
2019-05-06T08:25:42.485Z,51.74
2019-05-06T08:26:42.863Z,51.49
2019-05-06T08:27:42.525Z,51.33
2019-05-06T08:28:44.390Z,51.24
2019-05-06T08:29:42.457Z,52.07
2019-05-06T08:30:43.172Z,51.94
2019-05-06T08:31:43.039Z,51.15
2019-05-06T08:32:42.459Z,51.04
2019-05-06T08:33:43.199Z,50.88
2019-05-06T08:34:42.216Z,51.75
2019-05-06T08:35:42.578Z,51.11
2019-05-06T08:36:42.605Z,51.40
2019-05-06T08:37:42.640Z,52.60
2019-05-06T08:38:42.180Z,52.65
2019-05-06T08:39:45.827Z,52.61
2019-05-06T08:40:43.089Z,52.45
2019-05-06T08:41:42.316Z,52.57
2019-05-06T08:42:42.589Z,51.88
2019-05-06T08:43:42.223Z,51.68
2019-05-06T08:44:42.698Z,51.39
2019-05-06T08:45:42.144Z,52.34
2019-05-06T08:46:43.173Z,52.33
2019-05-06T08:47:42.625Z,52.18
2019-05-06T08:48:42.834Z,51.33
2019-05-06T08:49:42.259Z,50.25
2019-05-06T08:50:42.570Z,50.58
2019-05-06T08:51:42.673Z,50.28
2019-05-06T08:52:42.496Z,49.38
2019-05-06T08:53:42.435Z,48.42
2019-05-06T08:54:43.343Z,48.34
2019-05-06T08:55:42.100Z,48.63
2019-05-06T08:56:42.703Z,46.97
2019-05-06T08:57:42.075Z,46.83
2019-05-06T08:58:43.138Z,46.42
2019-05-06T08:59:42.368Z,46.77
2019-05-06T09:00:42.883Z,46.06
2019-05-06T09:01:42.448Z,45.96
2019-05-06T09:02:42.190Z,45.45
2019-05-06T09:03:42.319Z,45.65
2019-05-06T09:04:42.738Z,46.63
2019-05-06T09:05:42.344Z,46.43
2019-05-06T09:06:43.167Z,47.84
2019-05-06T09:07:42.978Z,45.91
2019-05-06T09:08:42.983Z,47.21
2019-05-06T09:09:42.193Z,45.86
2019-05-06T09:10:42.948Z,42.45
2019-05-06T09:11:43.162Z,44.28
2019-05-06T09:12:42.510Z,41.82
2019-05-06T09:13:42.887Z,40.77
2019-05-06T09:14:43.022Z,41.51
2019-05-06T09:15:42.892Z,43.37
2019-05-06T09:16:43.862Z,42.67
2019-05-06T09:17:42.079Z,42.18
2019-05-06T09:18:42.621Z,42.38
2019-05-06T09:19:42.648Z,43.21
2019-05-06T09:20:43.172Z,44.23
2019-05-06T09:21:45.853Z,43.23
2019-05-06T09:22:42.983Z,43.93
2019-05-06T09:23:42.510Z,42.25
2019-05-06T09:24:42.694Z,42.62
2019-05-06T09:25:42.477Z,43.82
2019-05-06T09:26:43.067Z,43.69
2019-05-06T09:27:42.150Z,44.14
2019-05-06T09:28:42.637Z,44.38
2019-05-06T09:29:42.971Z,44.15
2019-05-06T09:30:43.222Z,42.96
2019-05-06T09:31:42.705Z,42.83
2019-05-06T09:32:42.902Z,41.38
2019-05-06T09:33:42.491Z,41.51
2019-05-06T09:34:43.129Z,41.57
2019-05-06T09:35:42.201Z,42.29
2019-05-06T09:36:51.005Z,41.81
2019-05-06T09:37:42.937Z,42.70
2019-05-06T09:38:42.460Z,41.99
2019-05-06T09:39:43.016Z,41.19
2019-05-06T09:40:43.318Z,42.42
2019-05-06T09:41:47.266Z,41.21
2019-05-06T09:42:42.555Z,43.08
2019-05-06T09:43:43.370Z,42.19
2019-05-06T09:44:42.769Z,41.86
2019-05-06T09:45:42.551Z,42.23
2019-05-06T09:46:42.617Z,42.43
2019-05-06T09:47:42.384Z,42.91
2019-05-06T09:48:42.485Z,41.53
2019-05-06T09:49:42.569Z,41.73
2019-05-06T09:50:45.452Z,43.23
2019-05-06T09:51:42.552Z,42.81
2019-05-06T09:52:42.713Z,43.03
2019-05-06T09:53:43.263Z,42.55
2019-05-06T09:54:42.732Z,42.80
2019-05-06T09:55:43.007Z,42.61
2019-05-06T09:56:42.769Z,42.13
2019-05-06T09:57:42.684Z,43.13
2019-05-06T09:58:42.918Z,42.36
2019-05-06T09:59:42.163Z,42.78
2019-05-06T10:00:42.935Z,42.34
2019-05-06T10:01:43.788Z,42.94
2019-05-06T10:02:42.980Z,41.58
2019-05-06T10:03:42.650Z,42.27
2019-05-06T10:04:42.818Z,43.14
2019-05-06T10:05:42.512Z,42.86
2019-05-06T10:06:55.646Z,44.54
2019-05-06T10:07:41.729Z,43.49
2019-05-06T10:08:41.682Z,44.35
2019-05-06T10:09:43.388Z,42.43
2019-05-06T10:10:53.781Z,41.73
2019-05-06T10:11:42.302Z,40.63
2019-05-06T10:12:42.037Z,40.49
2019-05-06T10:13:43.088Z,42.03
2019-05-06T10:14:43.251Z,42.13
2019-05-06T10:15:42.900Z,41.45
2019-05-06T10:16:42.965Z,41.45
2019-05-06T10:17:42.915Z,41.38
2019-05-06T10:18:41.642Z,40.47
2019-05-06T10:19:42.882Z,40.66
2019-05-06T10:20:42.703Z,40.77
2019-05-06T10:21:42.735Z,41.71
2019-05-06T10:22:43.056Z,42.11
2019-05-06T10:23:42.415Z,41.00
2019-05-06T10:24:43.003Z,40.41
2019-05-06T10:25:43.585Z,40.16
2019-05-06T10:26:43.182Z,38.80
2019-05-06T10:27:42.288Z,37.74
2019-05-06T10:28:41.673Z,37.88
2019-05-06T10:29:43.224Z,37.51
2019-05-06T10:30:41.797Z,37.69
2019-05-06T10:31:43.205Z,37.71
2019-05-06T10:32:42.602Z,38.32
2019-05-06T10:33:42.744Z,38.86
2019-05-06T10:34:43.481Z,40.07
2019-05-06T10:35:42.870Z,39.46
2019-05-06T10:36:42.698Z,39.33
2019-05-06T10:37:42.285Z,40.25
2019-05-06T10:38:42.356Z,37.75
2019-05-06T10:39:41.756Z,39.28
2019-05-06T10:40:58.977Z,38.23
2019-05-06T10:41:42.190Z,38.13
2019-05-06T10:42:43.023Z,38.16
2019-05-06T10:43:43.104Z,38.22
2019-05-06T10:44:42.777Z,37.72
2019-05-06T10:45:42.662Z,38.63
2019-05-06T10:46:43.056Z,37.52
2019-05-06T10:47:42.313Z,37.46
2019-05-06T10:48:42.454Z,37.85
2019-05-06T10:49:42.146Z,37.76
2019-05-06T10:50:41.724Z,38.86
2019-05-06T10:51:42.724Z,38.21
2019-05-06T10:52:41.827Z,37.41
2019-05-06T10:53:42.446Z,35.79
2019-05-06T10:54:42.160Z,35.59
2019-05-06T10:55:42.750Z,34.50
2019-05-06T10:56:52.323Z,35.95
2019-05-06T10:57:43.077Z,35.79
2019-05-06T10:58:43.946Z,36.04
2019-05-06T10:59:42.910Z,35.94
2019-05-06T11:00:42.498Z,36.92
2019-05-06T11:01:42.672Z,35.85
2019-05-06T11:02:43.044Z,35.63
2019-05-06T11:03:42.081Z,36.40
2019-05-06T11:04:42.636Z,34.67
2019-05-06T11:05:43.093Z,35.32
2019-05-06T11:06:42.987Z,37.14
2019-05-06T11:07:43.136Z,35.42
2019-05-06T11:08:42.203Z,35.41
2019-05-06T11:09:42.650Z,34.93
2019-05-06T11:10:44.944Z,35.84
2019-05-06T11:11:42.730Z,37.92
2019-05-06T11:12:43.081Z,35.89
2019-05-06T11:13:41.674Z,35.27
2019-05-06T11:14:41.838Z,36.58
2019-05-06T11:15:43.356Z,36.50
2019-05-06T11:16:41.855Z,37.80
2019-05-06T11:17:43.655Z,35.93
2019-05-06T11:18:42.593Z,36.43
2019-05-06T11:19:42.767Z,38.23
2019-05-06T11:20:43.942Z,37.22
2019-05-06T11:21:45.130Z,36.05
2019-05-06T11:22:43.531Z,37.79
2019-05-06T11:23:41.926Z,37.02
2019-05-06T11:24:42.243Z,36.70
2019-05-06T11:25:43.205Z,36.06
2019-05-06T11:26:43.027Z,36.26
2019-05-06T11:27:44.934Z,36.14
2019-05-06T11:28:42.585Z,36.39
2019-05-06T11:29:43.554Z,37.11
2019-05-06T11:30:42.518Z,36.97
2019-05-06T11:31:43.281Z,37.90
2019-05-06T11:32:44.199Z,38.35
2019-05-06T11:33:44.514Z,37.35
2019-05-06T11:34:42.141Z,36.82
2019-05-06T11:35:43.107Z,36.33
2019-05-06T11:36:42.620Z,35.77
2019-05-06T11:37:47.176Z,35.67
2019-05-06T11:38:43.169Z,35.90
2019-05-06T11:39:43.070Z,35.85
2019-05-06T11:40:42.139Z,36.94
2019-05-06T11:41:59.627Z,37.41
2019-05-06T11:42:43.632Z,37.24
2019-05-06T11:43:42.837Z,37.53
2019-05-06T11:44:44.062Z,37.19
2019-05-06T11:45:42.736Z,38.06
2019-05-06T11:46:42.972Z,37.19
2019-05-06T11:47:42.171Z,37.75
2019-05-06T11:48:43.166Z,37.71
2019-05-06T11:49:44.119Z,37.42
2019-05-06T11:50:42.743Z,37.31
2019-05-06T11:51:43.514Z,37.24
2019-05-06T11:52:43.451Z,37.25
2019-05-06T11:53:41.811Z,38.05
2019-05-06T11:54:42.283Z,38.46
2019-05-06T11:55:41.831Z,37.92
2019-05-06T11:56:50.675Z,37.91
2019-05-06T11:57:44.409Z,38.03
2019-05-06T11:58:42.740Z,38.36
2019-05-06T11:59:43.279Z,39.38
2019-05-06T12:00:44.391Z,38.51
2019-05-06T12:01:43.441Z,39.71
2019-05-06T12:02:44.528Z,39.11
2019-05-06T12:03:42.741Z,39.19
2019-05-06T12:04:41.989Z,38.95
2019-05-06T12:05:41.929Z,39.08
2019-05-06T12:06:42.335Z,38.32
2019-05-06T12:07:44.897Z,38.09
2019-05-06T12:08:43.222Z,37.75
2019-05-06T12:09:41.779Z,38.82
2019-05-06T12:10:42.455Z,39.08
2019-05-06T12:11:43.235Z,39.96
2019-05-06T12:12:42.518Z,39.04
2019-05-06T12:13:42.564Z,38.36
2019-05-06T12:14:42.911Z,39.14
2019-05-06T12:15:41.843Z,37.65
2019-05-06T12:16:41.816Z,37.59
2019-05-06T12:17:42.247Z,36.89
2019-05-06T12:18:42.229Z,37.58
2019-05-06T12:19:43.270Z,37.58
2019-05-06T12:20:42.603Z,38.02
2019-05-06T12:21:43.099Z,37.23
2019-05-06T12:22:42.357Z,37.58
2019-05-06T12:23:44.799Z,36.43
2019-05-06T12:24:43.105Z,35.86
2019-05-06T12:25:45.415Z,36.05
2019-05-06T12:26:42.912Z,36.66
2019-05-06T12:27:43.049Z,37.07
2019-05-06T12:28:43.424Z,37.71
2019-05-06T12:29:42.833Z,38.42
2019-05-06T12:30:42.728Z,38.04
2019-05-06T12:31:42.285Z,37.66
2019-05-06T12:32:43.331Z,37.54
2019-05-06T12:33:42.697Z,38.11
2019-05-06T12:34:43.011Z,38.53
2019-05-06T12:35:42.807Z,37.42
2019-05-06T12:36:42.781Z,37.59
2019-05-06T12:37:44.077Z,37.17
2019-05-06T12:38:43.235Z,35.98
2019-05-06T12:39:43.171Z,36.03
2019-05-06T12:40:42.912Z,36.76
2019-05-06T12:41:43.104Z,36.45
2019-05-06T12:42:43.160Z,36.82
2019-05-06T12:43:43.010Z,37.07
2019-05-06T12:44:41.747Z,36.87
2019-05-06T12:45:42.965Z,36.65
2019-05-06T12:46:43.022Z,36.22
2019-05-06T12:47:42.688Z,36.86
2019-05-06T12:48:43.956Z,36.55
2019-05-06T12:49:42.594Z,37.26
2019-05-06T12:50:43.123Z,37.49
2019-05-06T12:51:43.300Z,38.23
2019-05-06T12:52:44.241Z,38.04